Tuesday, May 21, 2019, 10:56 PM EDT
Back to Local

KDDH, Bennington Morse State Airport

Location: Bennington, VT, United States Lat: 42.883
Local Time: 10:56 PM EDT ( 2:56 GMT) Lon: -73.25
Time Zone: US/Eastern Elev: 826 ft

Show me the last for .
Show Decoded

2019-05-21 21:54 METAR KDDH 220154Z AUTO 31009KT 10SM SCT080 13/00 A3005 RMK AO2 SLP178 T01280000
                 =
2019-05-21 20:54 METAR KDDH 220054Z AUTO 33008KT 10SM CLR 14/M01 A3002 RMK AO2 SLP167 T01391006 =
2019-05-21 19:54 METAR KDDH 212354Z AUTO 33008G20KT 10SM CLR 15/00 A2999 RMK AO2 SLP155 60000
                 T01500000 10172 20150 51023 =
2019-05-21 18:54 METAR KDDH 212254Z AUTO 33011G23KT 10SM FEW070 16/00 A2996 RMK AO2 PK WND
                 32026/2241 SLP147 T01560000 =
2019-05-21 17:54 METAR KDDH 212154Z AUTO 32014G26KT 290V350 10SM CLR 16/00 A2995 RMK AO2 PK WND
                 36029/2116 SLP143 T01560000 =
2019-05-21 16:54 METAR KDDH 212054Z AUTO 32012G23KT 10SM FEW070 17/02 A2992 RMK AO2 PK WND
                 33029/2036 SLP131 60000 T01670017 53009 =
2019-05-21 15:54 METAR KDDH 211954Z AUTO 32012G23KT 280V350 10SM FEW065 17/02 A2990 RMK AO2 PK
                 WND 33029/1937 RAE09 SLP126 P0000 T01670022 =
2019-05-21 14:54 METAR KDDH 211854Z AUTO 32017G24KT 270V340 10SM -RA BKN060 16/02 A2989 RMK AO2
                 PK WND 28027/1839 RAB17 SLP121 P0000 T01610022 =
2019-05-21 13:54 METAR KDDH 211754Z AUTO 29012G25KT 10SM BKN050 15/02 A2989 RMK AO2 PK WND
                 28026/1706 RAE01B24E40 SLP121 P0000 60000 T01500022 10156 20100 53003 =
2019-05-21 12:54 METAR KDDH 211654Z AUTO 32012G26KT 270V360 10SM -RA FEW050 15/03 A2988 RMK AO2
                 PK WND 30029/1639 SLP118 P0000 T01500033 =
2019-05-21 11:54 METAR KDDH 211554Z AUTO 30008G24KT 270V330 10SM -RA BKN046 OVC055 13/03 A2988
                 RMK AO2 PK WND 29029/1544 RAB46 SLP117 P0000 T01330028 =
2019-05-21 10:54 METAR KDDH 211454Z AUTO 30013G21KT 270V340 10SM OVC044 12/03 A2988 RMK AO2
                 SLP117 T01220028 55001 =
2019-05-21 09:54 METAR KDDH 211354Z AUTO 29009G16KT 10SM OVC040 11/03 A2987 RMK AO2 PK WND
                 27027/1334 SLP115 T01110028 =
2019-05-21 08:54 METAR KDDH 211254Z AUTO 29010G23KT 10SM FEW044 11/02 A2987 RMK AO2 SLP115
                 T01110022 =
2019-05-21 07:54 METAR KDDH 211154Z AUTO 27012G19KT 10SM FEW035 SCT047 10/04 A2988 RMK AO2 SLP117
                 70004 T01000039 10111 20083 53016 =
2019-05-21 06:54 METAR KDDH 211054Z AUTO 28008KT 10SM SCT049 08/04 A2986 RMK AO2 SLP110 T00830044
                 =
2019-05-21 05:54 METAR KDDH 210954Z AUTO 27007G16KT 250V320 10SM SCT041 08/04 A2985 RMK AO2
                 SLP104 T00830039 =
2019-05-21 04:54 METAR KDDH 210854Z AUTO 27008G15KT 220V310 10SM SCT038 OVC065 09/03 A2984 RMK
                 AO2 SLP100 T00940033 53005 =
2019-05-21 03:54 METAR KDDH 210754Z AUTO VRB06KT 10SM OVC039 10/04 A2982 RMK AO2 SLP093 T01000039
                 =
2019-05-21 02:54 METAR KDDH 210654Z AUTO 27008KT 10SM BKN038 11/04 A2982 RMK AO2 SLP094 T01060039
                 =
2019-05-21 01:54 METAR KDDH 210554Z AUTO VRB06G16KT 10SM BKN037 11/04 A2982 RMK AO2 SLP095 60000
                 T01110044 10206 20106 58006 =
2019-05-21 00:54 METAR KDDH 210454Z AUTO 27013G21KT 10SM SCT070 12/04 A2982 RMK AO2 PK WND
                 25026/0439 SLP095 T01170044 402560117 =
2019-05-20 23:54 METAR KDDH 210354Z AUTO 29013G23KT 260V330 10SM BKN047 OVC060 14/05 A2984 RMK
                 AO2 PK WND 28031/0313 RAE28 SLP103 P0000 T01390050 =

Support USWX by starting your Amazon purchase here.